Latest Weather Observations for Spring Bay

IDT60801

Issued at 2:05 am EST Friday 3 October 2014 (issued every 30 minutes, with the page automatically refreshed every 10 minutes)

About weather observations | Map of weather stations | Latest weather observations for TAS | Other Formats
Station Details ID: 092133 Name: SPRING BAY NTC AWS Lat: -42.55 Lon: 147.93 Height: 0.0 m
Data from the previous 72 hours. | See also: Recent months for locations in Tasmania
Date/Time
EST
Temp
°C
App
Temp
°C
Dew
Point
Rel
Hum
%
Delta-T
°C
Wind Press
QNH
hPa
Press
MSL
hPa
Rain
since 9 am
mm
Dir
 
Spd
km/h
Gust
km/h
Spd
kts
Gust
kts
03/02:00am 9.8 - - - - WSW 11 15 6 8 1018.6 1018.6 -
03/01:30am 9.9 - - - - SW 11 19 6 10 1018.7 1018.7 -
03/01:00am 10.2 - - - - SW 13 19 7 10 1018.8 1018.8 -
03/12:30am 10.4 - - - - SSW 19 30 10 16 1018.8 1018.8 -
03/12:00am 10.5 - - - - SW 15 22 8 12 1018.6 1018.6 -
 
Date/Time
EST
Temp
°C
App
Temp
°C
Dew
Point
Rel
Hum
%
Delta-T
°C
Wind Press
QNH
hPa
Press
MSL
hPa
Rain
since 9 am
mm
Dir
 
Spd
km/h
Gust
km/h
Spd
kts
Gust
kts
02/11:30pm 10.6 - - - - SSW 17 24 9 13 1018.4 1018.4 -
02/11:00pm 10.7 - - - - SSW 19 24 10 13 1018.2 1018.2 -
02/10:30pm 10.9 - - - - SSW 28 37 15 20 1018.0 1018.0 -
02/10:00pm 11.0 - - - - SW 20 28 11 15 1018.0 1018.0 -
02/09:30pm 11.2 - - - - SSW 15 19 8 10 1018.1 1018.1 -
02/09:00pm 11.5 - - - - SSW 30 35 16 19 1017.8 1017.8 -
02/08:30pm 11.6 - - - - SSW 26 35 14 19 1017.4 1017.4 -
02/08:00pm 11.8 - - - - SSW 24 35 13 19 1017.2 1017.2 -
02/07:30pm 12.2 - - - - S 30 41 16 22 1016.7 1016.7 -
02/07:00pm 12.6 - - - - S 26 37 14 20 1016.2 1016.2 -
02/06:30pm 12.9 - - - - SSW 26 37 14 20 1015.6 1015.6 -
02/06:00pm 13.3 - - - - S 30 44 16 24 1015.0 1015.0 -
02/05:30pm 13.9 - - - - S 32 44 17 24 1014.5 1014.5 -
02/05:00pm 14.3 - - - - SSW 39 54 21 29 1013.9 1013.9 -
02/04:47pm 14.6 - - - - SSW 33 52 18 28 1013.7 1013.7 -
02/04:30pm 15.1 - - - - SSW 33 46 18 25 1013.4 1013.4 -
02/04:00pm 15.4 - - - - S 30 43 16 23 1012.9 1012.9 -
02/03:30pm 14.9 - - - - S 26 39 14 21 1012.8 1012.8 -
02/03:25pm 14.4 - - - - S 28 37 15 20 1012.8 1012.8 -
02/03:00pm 13.5 - - - - SE 44 57 24 31 1012.5 1012.5 -
02/02:30pm 13.0 - - - - SE 46 54 25 29 1012.2 1012.2 -
02/02:09pm 13.4 - - - - SE 56 61 30 33 1011.8 1011.8 -
02/02:06pm 13.9 - - - - SSE 30 52 16 28 1012.0 1012.0 -
02/02:00pm 16.4 - - - - SSW 32 43 17 23 1011.9 1011.9 -
02/01:47pm 16.4 - - - - WSW 35 56 19 30 1011.7 1011.7 -
02/01:30pm 16.2 - - - - SW 39 56 21 30 1011.7 1011.7 -
02/01:11pm 16.6 - - - - SW 33 52 18 28 1011.5 1011.5 -
02/01:00pm 16.4 - - - - SW 44 56 24 30 1011.5 1011.5 -
02/12:30pm 16.3 - - - - SW 43 61 23 33 1011.6 1011.6 -
02/12:00pm 16.1 - - - - WSW 33 54 18 29 1011.6 1011.6 -
02/11:38am 16.1 - - - - WSW 35 56 19 30 1011.6 1011.6 -
02/11:30am 16.2 - - - - SW 32 44 17 24 1011.5 1011.5 -
02/11:01am 15.8 - - - - WSW 28 46 15 25 1011.8 1011.8 -
02/11:00am 15.8 - - - - WSW 26 46 14 25 1011.8 1011.8 -
02/10:30am 15.5 - - - - SW 39 57 21 31 1011.7 1011.7 -
02/10:00am 15.5 - - - - WSW 35 61 19 33 1011.5 1011.5 -
02/09:30am 15.1 - - - - WSW 33 61 18 33 1011.5 1011.5 -
02/09:13am 14.7 - - - - SW 32 57 17 31 1011.5 1011.5 -
02/09:00am 14.6 - - - - W 22 43 12 23 1011.4 1011.4 -
02/08:30am 14.5 - - - - WSW 32 50 17 27 1011.5 1011.5 -
02/08:00am 14.2 - - - - WSW 33 52 18 28 1011.3 1011.3 -
02/07:37am 14.0 - - - - W 30 52 16 28 1011.2 1011.2 -
02/07:30am 14.0 - - - - W 26 44 14 24 1011.2 1011.2 -
02/07:00am 13.8 - - - - WSW 20 30 11 16 1011.1 1011.1 -
02/06:30am 13.4 - - - - WSW 30 48 16 26 1010.8 1010.8 -
02/06:22am 13.3 - - - - W 28 48 15 26 1010.7 1010.7 -
02/06:00am 13.2 - - - - WSW 24 41 13 22 1010.6 1010.6 -
02/05:30am 13.3 - - - - W 17 32 9 17 1010.1 1010.1 -
02/05:00am 13.2 - - - - W 13 24 7 13 1009.9 1009.9 -
02/04:30am 13.4 - - - - W 22 37 12 20 1009.8 1009.8 -
02/04:00am 13.3 - - - - W 22 39 12 21 1009.8 1009.8 -
02/03:30am 13.5 - - - - WSW 26 44 14 24 1009.8 1009.8 -
02/03:00am 13.7 - - - - W 22 33 12 18 1009.9 1009.9 -
02/02:30am 13.6 - - - - W 26 43 14 23 1009.7 1009.7 -
02/02:00am 13.5 - - - - W 22 37 12 20 1009.7 1009.7 -
02/01:30am 13.3 - - - - W 24 39 13 21 1010.1 1010.1 -
02/01:00am 13.4 - - - - W 26 44 14 24 1010.3 1010.3 -
02/12:30am 13.5 - - - - W 26 39 14 21 1010.7 1010.7 -
02/12:00am 12.3 - - - - NW 11 24 6 13 1011.0 1011.0 -
 
Date/Time
EST
Temp
°C
App
Temp
°C
Dew
Point
Rel
Hum
%
Delta-T
°C
Wind Press
QNH
hPa
Press
MSL
hPa
Rain
since 9 am
mm
Dir
 
Spd
km/h
Gust
km/h
Spd
kts
Gust
kts
01/11:30pm 13.2 - - - - WNW 19 32 10 17 1011.6 1011.6 -
01/11:00pm 13.0 - - - - W 28 46 15 25 1011.8 1011.8 -
01/10:55pm 13.1 - - - - W 28 46 15 25 1011.8 1011.8 -
01/10:30pm 12.9 - - - - W 20 46 11 25 1012.0 1012.0 -
01/10:00pm 12.7 - - - - WNW 28 46 15 25 1012.4 1012.4 -
01/09:58pm 12.6 - - - - WNW 28 46 15 25 1012.4 1012.4 -
01/09:30pm 12.1 - - - - WNW 24 35 13 19 1012.7 1012.7 -
01/09:00pm 12.0 - - - - WNW 24 41 13 22 1013.3 1013.3 -
01/08:30pm 11.7 - - - - WNW 26 37 14 20 1013.5 1013.5 -
01/08:00pm 11.6 - - - - WNW 24 35 13 19 1014.0 1014.0 -
01/07:30pm 12.0 - - - - WNW 19 24 10 13 1014.4 1014.4 -
01/07:00pm 12.4 - - - - WNW 20 32 11 17 1014.6 1014.6 -
01/06:30pm 12.7 - - - - W 19 24 10 13 1014.6 1014.6 -
01/06:00pm 12.9 - - - - SW 24 33 13 18 1014.4 1014.4 -
01/05:30pm 13.4 - - - - WSW 28 39 15 21 1014.3 1014.3 -
01/05:01pm 13.7 - - - - SW 32 52 17 28 1014.3 1014.3 -
01/05:00pm 13.7 - - - - SW 30 48 16 26 1014.3 1014.3 -
01/04:39pm 13.6 - - - - W 35 54 19 29 1014.1 1014.1 -
01/04:30pm 13.6 - - - - WSW 39 57 21 31 1013.9 1013.9 -
01/04:13pm 13.8 - - - - WSW 32 52 17 28 1013.8 1013.8 -
01/04:00pm 13.7 - - - - WSW 28 39 15 21 1013.6 1013.6 -
01/03:33pm 13.8 - - - - SW 28 50 15 27 1013.3 1013.3 -
01/03:30pm 13.8 - - - - WSW 24 33 13 18 1013.3 1013.3 -
01/03:00pm 13.6 - - - - WSW 30 50 16 27 1013.6 1013.6 -
01/02:44pm 13.5 - - - - WSW 33 52 18 28 1013.7 1013.7 -
01/02:30pm 13.3 - - - - SW 35 46 19 25 1013.4 1013.4 -
01/02:06pm 13.4 - - - - WSW 32 52 17 28 1013.4 1013.4 -
01/02:00pm 13.5 - - - - WSW 26 37 14 20 1013.5 1013.5 -
01/01:30pm 13.4 - - - - SW 35 50 19 27 1013.2 1013.2 -
01/01:00pm 12.9 - - - - SW 28 46 15 25 1013.4 1013.4 -
01/12:30pm 12.2 - - - - SW 43 61 23 33 1013.8 1013.8 -
01/12:00pm 12.4 - - - - WSW 35 50 19 27 1013.8 1013.8 -
01/11:45am 12.7 - - - - WSW 30 48 16 26 1013.5 1013.5 -
01/11:30am 12.6 - - - - SW 35 46 19 25 1013.4 1013.4 -
01/11:13am 12.6 - - - - SW 30 48 16 26 1013.3 1013.3 -
01/11:00am 12.3 - - - - SW 33 44 18 24 1013.3 1013.3 -
01/10:30am 11.6 - - - - WSW 39 56 21 30 1013.4 1013.4 -
01/10:25am 11.8 - - - - SW 33 56 18 30 1013.4 1013.4 -
01/10:00am 11.2 - - - - WSW 39 50 21 27 1013.3 1013.3 -
01/09:30am 11.6 - - - - SW 39 57 21 31 1013.3 1013.3 -
01/09:16am 11.3 - - - - SW 33 52 18 28 1013.1 1013.1 -
01/09:00am 11.2 - - - - SW 35 52 19 28 1012.9 1012.9 -
01/08:30am 10.7 - - - - SW 28 43 15 23 1012.7 1012.7 -
01/08:00am 9.9 - - - - SW 28 39 15 21 1012.4 1012.4 -
01/07:30am 9.0 - - - - WSW 20 28 11 15 1011.9 1011.9 -
01/07:00am 8.3 - - - - SW 24 33 13 18 1011.4 1011.4 -
01/06:30am 7.7 - - - - SW 22 35 12 19 1010.8 1010.8 -
01/06:00am 7.9 - - - - SSW 19 28 10 15 1010.3 1010.3 -
01/05:30am 8.0 - - - - SW 26 37 14 20 1009.1 1009.1 -
01/05:00am 7.8 - - - - SW 24 32 13 17 1008.1 1008.1 -
01/04:30am 7.4 - - - - WSW 32 48 17 26 1007.4 1007.4 -
01/04:00am 8.1 - - - - WSW 41 52 22 28 1006.4 1006.4 -
01/03:30am 8.4 - - - - SW 32 43 17 23 1006.1 1006.1 -
01/03:00am 8.3 - - - - SW 39 50 21 27 1005.7 1005.7 -
01/02:49am 8.3 - - - - SW 35 44 19 24 1005.7 1005.7 -
01/02:40am 8.5 - - - - SW 56 63 30 34 1005.7 1005.7 -
01/02:34am 8.0 - - - - WSW 32 52 17 28 1005.6 1005.6 -
01/02:30am 8.1 - - - - WSW 30 46 16 25 1005.5 1005.5 -
01/02:00am 8.2 - - - - WSW 37 48 20 26 1005.1 1005.1 -
01/01:30am 8.3 - - - - WSW 37 52 20 28 1004.7 1004.7 -
01/01:00am 8.4 - - - - WSW 37 50 20 27 1004.4 1004.4 -
01/12:30am 8.7 - - - - WSW 28 39 15 21 1004.2 1004.2 -
01/12:00am 8.8 - - - - SW 30 41 16 22 1003.7 1003.7 -
 
Date/Time
EST
Temp
°C
App
Temp
°C
Dew
Point
Rel
Hum
%
Delta-T
°C
Wind Press
QNH
hPa
Press
MSL
hPa
Rain
since 9 am
mm
Dir
 
Spd
km/h
Gust
km/h
Spd
kts
Gust
kts
30/11:30pm 9.0 - - - - WSW 32 41 17 22 1003.0 1003.0 -
30/11:00pm 9.0 - - - - SW 26 39 14 21 1002.6 1002.6 -
30/10:30pm 9.2 - - - - WSW 28 43 15 23 1002.3 1002.3 -
30/10:02pm 9.0 - - - - W 28 48 15 26 1001.6 1001.6 -
30/10:00pm 9.3 - - - - W 33 48 18 26 1001.5 1001.5 -
30/09:30pm 9.6 - - - - WSW 35 56 19 30 1000.5 1000.5 -
30/09:15pm 9.7 - - - - SW 33 52 18 28 1000.6 1000.6 -
30/09:00pm 9.8 - - - - SW 30 43 16 23 1000.2 1000.2 -
30/08:37pm 10.0 - - - - SW 35 54 19 29 999.9 999.9 -
30/08:30pm 10.1 - - - - SW 33 44 18 24 999.6 999.6 -
30/08:14pm 10.2 - - - - SW 30 48 16 26 999.4 999.4 -
30/08:00pm 10.1 - - - - SW 32 44 17 24 998.8 998.8 -
30/07:30pm 10.8 - - - - SW 39 57 21 31 998.0 998.0 -
30/07:03pm 11.2 - - - - SW 41 63 22 34 997.1 997.1 -
30/07:00pm 11.2 - - - - SW 35 54 19 29 997.0 997.0 -
30/06:31pm 11.4 - - - - SW 30 50 16 27 995.6 995.6 -
30/06:30pm 11.4 - - - - SW 32 50 17 27 995.6 995.6 -
30/06:16pm 12.0 - - - - SSW 41 46 22 25 995.6 995.6 -
30/06:10pm 12.6 - - - - WSW 28 52 15 28 995.5 995.5 -
30/06:00pm 12.8 - - - - SW 15 41 8 22 995.6 995.6 -
30/05:30pm 12.7 - - - - WSW 7 13 4 7 994.9 994.9 -
30/05:00pm 12.7 - - - - W 15 22 8 12 994.1 994.1 -
30/04:30pm 12.4 - - - - S 7 11 4 6 993.9 993.9 -
30/04:00pm 12.3 - - - - E 6 13 3 7 993.4 993.4 -
30/03:30pm 11.8 - - - - WSW 17 26 9 14 993.5 993.5 -
30/03:00pm 12.9 - - - - WSW 33 48 18 26 994.1 994.1 -
30/02:30pm 13.7 - - - - W 41 63 22 34 993.6 993.6 -
30/02:26pm 14.6 - - - - W 39 61 21 33 993.6 993.6 -
30/02:23pm 15.3 - - - - W 44 61 24 33 993.3 993.3 -
30/02:06pm 15.8 - - - - WNW 28 50 15 27 993.1 993.1 -
30/02:00pm 15.8 - - - - NW 30 43 16 23 993.0 993.0 -
30/01:39pm 15.7 - - - - WNW 28 48 15 26 993.3 993.3 -
30/01:30pm 15.7 - - - - NW 44 54 24 29 993.2 993.2 -
30/01:08pm 15.7 - - - - NW 39 57 21 31 993.5 993.5 -
30/01:00pm 15.2 - - - - NW 48 65 26 35 993.4 993.4 -
30/12:30pm 16.7 - - - - NW 56 74 30 40 993.7 993.7 -

Other Formats:

Comma delimited format used in spreadsheet applications
http://www.bom.gov.au/fwo/IDT60801/IDT60801.95987.axf

JavaScript Object Notation format (JSON) in row-major order
http://www.bom.gov.au/fwo/IDT60801/IDT60801.95987.json